Time;durP1;ratioP1;P1;durP2;ratioP2;P2;SDS_P1;SDS_P2;PMS_P1;PMS_P2;Temp;Humidity;BMP_temperature;BMP_pressure;BME280_temperature;BME280_humidity;BME280_pressure;Samples;Min_cycle;Max_cycle;Signal;HPM_P1;HPM_P2
2021/04/18 00:01:36;;;;;;;15.37;11.07;;;;;;;3.30;63.80;94202.66;4976009;28;20049;-71
2021/04/18 00:04:03;;;;;;;16.88;11.27;;;;;;;3.40;63.82;94213.88;4975606;28;20425;-71
2021/04/18 00:06:39;;;;;;;13.90;10.73;;;;;;;3.36;64.42;94200.38;4959374;28;20030;-71
2021/04/18 00:09:16;;;;;;;15.82;11.13;;;;;;;3.36;65.72;94202.16;5014695;28;20045;-71
2021/04/18 00:11:43;;;;;;;16.25;11.38;;;;;;;3.30;64.68;94193.09;5046860;28;20046;-71
2021/04/18 00:14:17;;;;;;;16.17;10.57;;;;;;;3.32;64.66;94196.41;5031782;28;20115;-71
2021/04/18 00:16:47;;;;;;;16.17;11.82;;;;;;;3.31;66.17;94189.59;5035368;28;20466;-71
2021/04/18 00:19:14;;;;;;;14.57;10.95;;;;;;;3.29;64.66;94182.91;5040998;28;20040;-71
2021/04/18 00:21:41;;;;;;;15.90;11.63;;;;;;;3.25;65.83;94184.94;5023170;28;20029;-71
2021/04/18 00:24:08;;;;;;;14.27;11.30;;;;;;;3.26;65.70;94183.97;5024808;28;20029;-71
2021/04/18 00:26:35;;;;;;;19.10;13.65;;;;;;;3.23;64.30;94181.63;5055577;28;20091;-71
2021/04/18 00:29:05;;;;;;;17.13;13.38;;;;;;;3.19;64.46;94178.47;5037273;28;20104;-71
2021/04/18 00:31:34;;;;;;;32.95;20.45;;;;;;;3.29;64.49;94180.31;5039239;28;20029;-71
2021/04/18 00:33:59;;;;;;;18.30;11.90;;;;;;;3.32;64.38;94180.06;5034586;28;20033;-71
2021/04/18 00:36:25;;;;;;;16.38;11.05;;;;;;;3.29;63.88;94175.97;5037541;28;20047;-70
2021/04/18 00:38:50;;;;;;;14.30;11.25;;;;;;;3.35;63.43;94172.06;5063688;28;20036;-71
2021/04/18 00:41:16;;;;;;;15.00;11.30;;;;;;;3.37;63.63;94177.91;5032165;28;20022;-71
2021/04/18 00:43:45;;;;;;;14.90;11.35;;;;;;;3.36;63.52;94173.69;5002230;28;20025;-71
2021/04/18 00:46:10;;;;;;;18.15;13.18;;;;;;;3.40;63.39;94175.09;5054599;28;20013;-73
2021/04/18 00:48:42;;;;;;;20.67;13.63;;;;;;;3.38;62.75;94170.00;5055196;28;20038;-72
2021/04/18 00:51:29;;;;;;;17.52;13.07;;;;;;;3.33;63.00;94167.00;5051762;28;20033;-71
2021/04/18 00:53:55;;;;;;;17.13;12.18;;;;;;;3.30;64.33;94163.84;5031641;28;20043;-70
2021/04/18 00:56:29;;;;;;;17.15;11.93;;;;;;;3.34;63.90;94173.00;5065042;28;20021;-70
2021/04/18 00:59:01;;;;;;;15.70;11.90;;;;;;;3.30;63.15;94172.41;5070565;28;20072;-71
2021/04/18 01:01:30;;;;;;;15.30;11.93;;;;;;;3.30;63.51;94172.41;5037794;28;20029;-72
2021/04/18 01:03:57;;;;;;;14.18;11.73;;;;;;;3.29;64.11;94169.97;5055269;28;20132;-71
2021/04/18 01:06:25;;;;;;;17.52;11.90;;;;;;;3.21;64.94;94168.03;5027624;28;20030;-71
2021/04/18 01:08:51;;;;;;;16.45;11.57;;;;;;;3.23;63.68;94170.47;5052526;28;20044;-71
2021/04/18 01:11:19;;;;;;;14.25;11.32;;;;;;;3.21;64.23;94166.25;5046682;28;20602;-70
2021/04/18 01:14:09;;;;;;;14.02;10.88;;;;;;;3.16;65.20;94165.81;5073914;28;20073;-70
2021/04/18 01:16:36;;;;;;;15.70;11.45;;;;;;;3.15;64.69;94161.56;5054063;28;20024;-71
2021/04/18 01:19:01;;;;;;;17.52;11.45;;;;;;;3.07;64.72;94161.38;5039509;28;20052;-71
2021/04/18 01:21:46;;;;;;;13.90;11.00;;;;;;;3.06;64.54;94162.34;5055573;28;20025;-70
2021/04/18 01:24:28;;;;;;;16.52;12.05;;;;;;;3.03;65.19;94154.81;5018115;28;20029;-71
2021/04/18 01:26:57;;;;;;;15.10;11.13;;;;;;;3.00;64.72;94155.09;5036652;28;20096;-72
2021/04/18 01:29:50;;;;;;;14.15;11.27;;;;;;;2.92;64.98;94149.72;5035034;28;20056;-71
2021/04/18 01:32:22;;;;;;;17.50;11.48;;;;;;;3.01;64.68;94149.78;5040215;28;20090;-71
2021/04/18 01:34:54;;;;;;;13.75;9.82;;;;;;;3.06;64.33;94158.94;5023633;28;20021;-71
2021/04/18 01:37:20;;;;;;;13.43;10.10;;;;;;;3.12;64.06;94159.25;5036180;28;20032;-71
2021/04/18 01:39:46;;;;;;;14.13;10.50;;;;;;;3.03;65.20;94150.50;5054604;28;20029;-71
2021/04/18 01:42:11;;;;;;;13.00;10.13;;;;;;;3.06;64.76;94157.19;5032097;28;20032;-71
2021/04/18 01:44:42;;;;;;;15.57;10.30;;;;;;;3.01;65.00;94151.56;5036635;28;20400;-71
2021/04/18 01:47:08;;;;;;;12.85;10.25;;;;;;;2.94;64.85;94150.41;5019571;28;20049;-70
2021/04/18 01:49:33;;;;;;;14.68;10.95;;;;;;;2.82;65.42;94149.66;5037004;28;20025;-71
2021/04/18 01:52:29;;;;;;;13.23;9.48;;;;;;;2.87;64.67;94150.91;5039350;28;20041;-70
2021/04/18 01:55:05;;;;;;;14.65;9.95;;;;;;;2.80;66.16;94152.38;5021807;28;20078;-71
2021/04/18 01:57:36;;;;;;;16.25;11.27;;;;;;;2.38;68.27;94156.63;5001963;28;20048;-71
2021/04/18 02:00:07;;;;;;;15.73;11.20;;;;;;;2.21;68.32;94158.78;5005828;28;20045;-71
2021/04/18 02:03:05;;;;;;;14.98;11.10;;;;;;;2.26;68.12;94153.25;5013999;28;20127;-71
2021/04/18 02:05:39;;;;;;;14.02;10.48;;;;;;;2.31;67.77;94157.13;4983592;28;20046;-70
2021/04/18 02:08:06;;;;;;;15.70;10.75;;;;;;;2.43;67.33;94157.88;4957387;28;20105;-70
2021/04/18 02:10:32;;;;;;;15.75;11.13;;;;;;;2.32;67.31;94160.50;4952952;28;20034;-70
2021/04/18 02:13:07;;;;;;;16.92;11.20;;;;;;;2.30;67.72;94162.38;4987682;28;20219;-70
2021/04/18 02:15:35;;;;;;;14.02;10.90;;;;;;;2.35;68.01;94155.94;4942758;28;20031;-71
2021/04/18 02:18:01;;;;;;;15.00;10.68;;;;;;;2.35;68.72;94158.53;4973599;28;20065;-70
2021/04/18 02:20:29;;;;;;;15.90;11.52;;;;;;;2.42;67.27;94156.28;4950725;28;20427;-71
2021/04/18 02:22:55;;;;;;;15.38;11.35;;;;;;;2.47;67.41;94161.06;4957809;28;20034;-71
2021/04/18 02:25:22;;;;;;;15.90;11.95;;;;;;;2.53;68.21;94160.59;4960361;28;20046;-71
2021/04/18 02:27:47;;;;;;;13.27;10.85;;;;;;;2.52;69.42;94151.19;4977672;28;20042;-71
2021/04/18 02:30:14;;;;;;;14.48;10.75;;;;;;;2.49;68.19;94160.00;4948862;28;20030;-71
2021/04/18 02:32:41;;;;;;;14.43;10.95;;;;;;;2.49;69.02;94162.56;4960572;28;20030;-71
2021/04/18 02:35:09;;;;;;;14.50;11.15;;;;;;;2.49;68.33;94148.84;4959942;28;20039;-71
2021/04/18 02:37:34;;;;;;;13.52;10.48;;;;;;;2.43;69.27;94150.13;4949888;28;20030;-71
2021/04/18 02:39:59;;;;;;;14.48;11.32;;;;;;;2.44;69.37;94144.03;4986796;28;20041;-71
2021/04/18 02:42:25;;;;;;;14.38;11.20;;;;;;;2.47;69.02;94143.78;5038403;28;20024;-71
2021/04/18 02:44:53;;;;;;;16.80;12.63;;;;;;;2.47;69.94;94146.38;5035231;28;20056;-71
2021/04/18 02:47:27;;;;;;;15.82;11.20;;;;;;;2.46;69.83;94152.50;5032711;28;20030;-71
2021/04/18 02:49:52;;;;;;;17.00;11.57;;;;;;;2.43;69.30;94150.13;5041049;28;20089;-72
2021/04/18 02:52:21;;;;;;;15.32;10.45;;;;;;;2.51;68.88;94150.34;5045366;28;20102;-71
2021/04/18 02:54:49;;;;;;;13.30;11.13;;;;;;;2.50;70.00;94151.31;5052010;28;20017;-70
2021/04/18 02:57:14;;;;;;;14.25;11.10;;;;;;;2.47;69.60;94151.53;5042522;28;20033;-71
2021/04/18 02:59:42;;;;;;;13.25;10.65;;;;;;;2.53;69.65;94153.63;5050752;28;20036;-70
2021/04/18 03:02:21;;;;;;;13.30;10.65;;;;;;;2.57;69.74;94151.66;5028242;28;20037;-70
2021/04/18 03:04:50;;;;;;;15.98;11.25;;;;;;;2.47;70.43;94156.69;5027961;28;20036;-72
2021/04/18 03:07:16;;;;;;;14.85;11.00;;;;;;;2.52;69.89;94152.00;5048722;28;20097;-70
2021/04/18 03:09:42;;;;;;;15.68;11.15;;;;;;;2.48;70.77;94163.50;5017829;28;20140;-70
2021/04/18 03:12:18;;;;;;;15.32;11.65;;;;;;;2.45;70.05;94150.00;5017775;28;20032;-71
2021/04/18 03:14:45;;;;;;;16.10;11.80;;;;;;;2.51;70.60;94152.94;5052311;28;20021;-70
2021/04/18 03:17:12;;;;;;;15.02;11.25;;;;;;;2.50;71.05;94153.91;5023442;28;20021;-71
2021/04/18 03:20:07;;;;;;;15.07;11.88;;;;;;;2.57;69.49;94158.56;5026879;28;20029;-71
2021/04/18 03:22:33;;;;;;;14.93;10.93;;;;;;;2.52;70.00;94153.78;5010114;28;20041;-72
2021/04/18 03:24:58;;;;;;;15.48;11.20;;;;;;;2.58;69.75;94155.84;5009894;28;20024;-71
2021/04/18 03:27:24;;;;;;;14.02;11.07;;;;;;;2.57;70.24;94158.56;4982530;28;20049;-71
2021/04/18 03:29:49;;;;;;;14.15;10.80;;;;;;;2.61;69.29;94165.13;4997932;28;20068;-71
2021/04/18 03:32:14;;;;;;;13.85;10.75;;;;;;;2.56;69.53;94154.31;4995026;28;20048;-71
2021/04/18 03:34:43;;;;;;;13.93;11.10;;;;;;;2.51;70.17;94158.09;5002665;28;20029;-70
2021/04/18 03:37:09;;;;;;;17.52;11.27;;;;;;;2.62;70.06;94151.25;5014994;28;20022;-71
2021/04/18 03:39:37;;;;;;;14.05;11.18;;;;;;;2.60;70.53;94153.13;5006808;28;20048;-70
2021/04/18 03:42:05;;;;;;;14.45;11.10;;;;;;;2.55;70.21;94150.94;4997788;28;20025;-70
2021/04/18 03:44:33;;;;;;;15.43;11.93;;;;;;;2.64;70.38;94160.53;4998476;28;20048;-71
2021/04/18 03:47:09;;;;;;;16.92;11.48;;;;;;;2.59;71.34;94159.28;4994929;28;20045;-71
2021/04/18 03:49:44;;;;;;;15.80;11.30;;;;;;;2.60;70.18;94155.72;5010734;28;20086;-70
2021/04/18 03:52:18;;;;;;;15.48;11.85;;;;;;;2.53;71.39;94148.47;5014496;28;20067;-70
2021/04/18 03:54:46;;;;;;;16.80;12.27;;;;;;;2.61;71.10;94149.63;5003862;28;20049;-70
2021/04/18 03:57:22;;;;;;;18.55;12.93;;;;;;;2.61;71.07;94157.38;5018395;28;20040;-70
2021/04/18 03:59:49;;;;;;;14.05;11.23;;;;;;;2.67;70.91;94155.13;5035000;28;20041;-70
2021/04/18 04:02:27;;;;;;;14.98;11.25;;;;;;;2.74;70.55;94150.28;5036263;28;20025;-71
2021/04/18 04:05:03;;;;;;;14.85;11.30;;;;;;;2.74;70.94;94145.09;5036111;28;20017;-71
2021/04/18 04:07:42;;;;;;;15.90;12.10;;;;;;;2.72;71.66;94157.34;5048737;28;20040;-70
2021/04/18 04:10:19;;;;;;;16.10;12.73;;;;;;;2.60;70.29;94148.81;5047085;28;20052;-71
2021/04/18 04:12:50;;;;;;;16.20;12.02;;;;;;;2.64;70.53;94149.38;5020313;28;20045;-71
2021/04/18 04:15:17;;;;;;;14.90;11.80;;;;;;;2.54;70.50;94157.03;5037003;28;20024;-71
2021/04/18 04:17:43;;;;;;;17.58;12.07;;;;;;;2.57;71.16;94156.81;5038824;28;20039;-70
2021/04/18 04:20:13;;;;;;;15.75;12.35;;;;;;;2.51;71.43;94155.50;5038932;28;20021;-70
2021/04/18 04:22:39;;;;;;;14.70;12.27;;;;;;;2.51;71.33;94155.50;5043109;28;20070;-71
2021/04/18 04:25:06;;;;;;;16.15;12.75;;;;;;;2.49;72.60;94156.59;5026689;28;20036;-71
2021/04/18 04:27:37;;;;;;;16.02;12.63;;;;;;;2.62;71.99;94159.81;5051235;28;20035;-70
2021/04/18 04:30:03;;;;;;;17.00;12.13;;;;;;;2.60;70.97;94160.88;5030592;28;20032;-71
2021/04/18 04:32:34;;;;;;;17.13;13.02;;;;;;;2.62;71.44;94164.19;5057391;28;20025;-70
2021/04/18 04:35:01;;;;;;;15.88;11.90;;;;;;;2.65;71.30;94166.50;5043264;28;20071;-71
2021/04/18 04:37:27;;;;;;;16.10;12.93;;;;;;;2.61;71.29;94165.13;5035516;28;20030;-70
2021/04/18 04:39:54;;;;;;;17.70;13.55;;;;;;;2.68;71.59;94161.13;5028290;28;20080;-71
2021/04/18 04:42:20;;;;;;;15.48;12.35;;;;;;;2.64;71.80;94167.47;5042732;28;20029;-71
2021/04/18 04:44:47;;;;;;;15.50;12.55;;;;;;;2.59;72.34;94159.28;5053478;28;20036;-70
2021/04/18 04:47:17;;;;;;;15.60;13.35;;;;;;;2.57;72.56;94161.13;5049974;28;20036;-70
2021/04/18 04:49:48;;;;;;;;;;;;;;;2.66;71.54;94163.00;5034040;28;20040;-71
2021/04/18 04:52:21;;;;;;;17.30;13.20;;;;;;;2.74;73.04;94164.97;5037744;28;19913;-70
2021/04/18 04:54:47;;;;;;;17.25;13.35;;;;;;;2.71;72.87;94176.38;5029713;28;20033;-70
2021/04/18 04:57:13;;;;;;;18.73;13.05;;;;;;;2.66;72.91;94168.16;5045824;28;20039;-70
2021/04/18 04:59:40;;;;;;;18.27;13.63;;;;;;;2.64;72.55;94178.63;5021617;28;20029;-71
2021/04/18 05:02:06;;;;;;;16.40;12.98;;;;;;;2.74;72.98;94181.28;5052681;28;20036;-71
2021/04/18 05:04:32;;;;;;;15.30;12.98;;;;;;;2.73;72.31;94171.88;5046728;28;20016;-70
2021/04/18 05:07:08;;;;;;;15.60;13.43;;;;;;;2.67;72.28;94182.72;5043845;28;20040;-70
2021/04/18 05:09:33;;;;;;;16.67;12.32;;;;;;;2.75;72.94;94188.09;5047226;28;20066;-71
2021/04/18 05:12:03;;;;;;;14.48;12.02;;;;;;;2.78;73.12;94185.25;5065678;28;20056;-71
2021/04/18 05:14:33;;;;;;;18.60;12.63;;;;;;;2.77;72.47;94186.19;5034819;28;20036;-71
2021/04/18 05:17:10;;;;;;;15.30;13.15;;;;;;;2.79;73.13;94192.06;5041435;28;20039;-71
2021/04/18 05:19:55;;;;;;;17.15;13.43;;;;;;;2.79;73.68;94194.66;5042410;28;20082;-70
2021/04/18 05:22:30;;;;;;;15.73;13.30;;;;;;;2.86;72.45;94194.97;5038027;28;20036;-70
2021/04/18 05:24:56;;;;;;;16.63;13.02;;;;;;;2.83;72.30;94196.03;5038812;28;20066;-70
2021/04/18 05:27:42;;;;;;;15.90;12.55;;;;;;;2.90;72.96;94196.38;5043611;28;20325;-70
2021/04/18 05:30:25;;;;;;;15.93;12.75;;;;;;;2.91;73.15;94202.34;5034100;28;20092;-71
2021/04/18 05:32:57;;;;;;;16.23;12.73;;;;;;;2.98;72.36;94204.31;5053340;28;20044;-70
2021/04/18 05:35:41;;;;;;;17.45;12.95;;;;;;;3.02;72.59;94202.31;5050811;28;20025;-70
2021/04/18 05:38:07;;;;;;;16.13;12.63;;;;;;;3.03;72.31;94209.94;5037634;28;20099;-70
2021/04/18 05:40:34;;;;;;;14.63;12.32;;;;;;;3.10;72.27;94206.84;5034967;28;20037;-70
2021/04/18 05:43:00;;;;;;;15.65;12.05;;;;;;;3.06;71.28;94201.13;5018107;28;20037;-71
2021/04/18 05:45:30;;;;;;;16.77;12.48;;;;;;;3.03;71.13;94203.94;5050189;28;20033;-70
2021/04/18 05:47:57;;;;;;;19.58;14.00;;;;;;;3.12;72.79;94207.56;5053897;28;20068;-70
2021/04/18 05:50:22;;;;;;;16.90;13.93;;;;;;;3.05;72.59;94209.81;5056335;28;20089;-70
2021/04/18 05:52:58;;;;;;;17.25;13.85;;;;;;;3.01;72.74;94203.25;5038316;28;20048;-70
2021/04/18 05:55:58;;;;;;;18.35;13.73;;;;;;;3.07;72.84;94209.69;5021084;28;20108;-70
2021/04/18 05:58:26;;;;;;;18.73;14.98;;;;;;;2.96;74.62;94207.97;4993832;28;20062;-70
2021/04/18 06:00:53;;;;;;;19.30;15.88;;;;;;;2.83;75.04;94211.56;4977527;28;20053;-70
2021/04/18 06:03:29;;;;;;;21.52;15.88;;;;;;;2.80;75.22;94216.13;4961402;28;20034;-70
2021/04/18 06:05:58;;;;;;;19.05;15.15;;;;;;;2.92;75.23;94215.16;4977414;28;20056;-71
2021/04/18 06:08:24;;;;;;;22.05;15.02;;;;;;;2.76;75.23;94207.84;4977782;28;20038;-72
2021/04/18 06:10:59;;;;;;;21.33;16.17;;;;;;;2.77;75.03;94209.44;4978219;28;20075;-71
2021/04/18 06:13:25;;;;;;;22.50;16.67;;;;;;;2.85;74.89;94207.06;4993312;28;20045;-71
2021/04/18 06:15:53;;;;;;;20.58;14.77;;;;;;;3.06;74.70;94215.81;4997921;28;20034;-71
2021/04/18 06:18:45;;;;;;;21.65;15.80;;;;;;;3.03;73.50;94211.69;4987026;28;20105;-72
2021/04/18 06:21:18;;;;;;;19.88;13.82;;;;;;;3.25;73.46;94208.22;4941301;28;20042;-71
2021/04/18 06:23:52;;;;;;;18.30;15.32;;;;;;;3.45;73.31;94218.66;4919566;28;20105;-72
2021/04/18 06:26:19;;;;;;;16.58;13.80;;;;;;;3.25;73.06;94212.53;4953924;28;20038;-70
2021/04/18 06:28:47;;;;;;;18.73;14.38;;;;;;;3.36;73.79;94215.91;4940836;28;20089;-71
2021/04/18 06:31:21;;;;;;;17.60;13.38;;;;;;;3.46;72.61;94220.31;4957203;28;20039;-71
2021/04/18 06:33:49;;;;;;;15.98;13.15;;;;;;;3.55;72.21;94220.38;4965964;28;20085;-71
2021/04/18 06:36:18;;;;;;;17.88;12.95;;;;;;;3.64;71.64;94221.34;4960627;28;20023;-71
2021/04/18 06:38:44;;;;;;;16.80;13.32;;;;;;;3.86;71.17;94219.56;5000100;28;20049;-71
2021/04/18 06:41:12;;;;;;;16.75;13.10;;;;;;;3.99;70.83;94224.53;4965668;28;20029;-71
2021/04/18 06:44:06;;;;;;;17.70;13.80;;;;;;;3.99;71.48;94229.72;4959042;28;20083;-71
2021/04/18 06:46:39;;;;;;;16.25;13.40;;;;;;;4.15;71.16;94224.06;4996019;28;20073;-71
2021/04/18 06:49:06;;;;;;;15.23;12.27;;;;;;;4.03;70.66;94226.72;4985305;28;20060;-71
2021/04/18 06:51:58;;;;;;;16.48;13.70;;;;;;;4.16;71.95;94226.53;4976489;28;20038;-70
2021/04/18 06:54:24;;;;;;;15.73;12.68;;;;;;;4.21;70.76;94237.28;4934947;28;20035;-71
2021/04/18 06:56:59;;;;;;;17.05;14.45;;;;;;;4.16;71.39;94236.88;4930911;28;20050;-73
2021/04/18 06:59:29;;;;;;;19.70;15.93;;;;;;;4.02;71.48;94234.63;4993521;28;20046;-72
2021/04/18 07:01:54;;;;;;;18.73;14.07;;;;;;;4.00;70.27;94237.34;4995723;28;20510;-71
2021/04/18 07:04:24;;;;;;;17.63;14.43;;;;;;;3.99;71.67;94235.72;4975351;28;20084;-71
2021/04/18 07:07:01;;;;;;;;;;;;;;;3.80;71.41;94233.03;4988811;28;20045;-71
2021/04/18 07:09:29;;;;;;;18.73;14.25;;;;;;;3.94;71.85;94242.22;4993282;28;19924;-71
2021/04/18 07:11:59;;;;;;;17.25;14.30;;;;;;;3.84;70.52;94232.63;4984922;28;20052;-71
2021/04/18 07:14:27;;;;;;;20.13;15.60;;;;;;;3.65;72.27;94235.13;4976905;28;20036;-71
2021/04/18 07:17:06;;;;;;;19.45;14.55;;;;;;;3.83;71.84;94237.94;5003404;28;20037;-71
2021/04/18 07:19:32;;;;;;;18.58;14.60;;;;;;;3.93;71.91;94233.66;4993330;28;20060;-71
2021/04/18 07:22:06;;;;;;;16.33;13.32;;;;;;;3.88;71.28;94233.22;4990046;28;20058;-72
2021/04/18 07:25:09;;;;;;;16.67;13.35;;;;;;;3.91;69.73;94232.13;4978672;28;20045;-71
2021/04/18 07:27:50;;;;;;;18.45;15.05;;;;;;;3.47;70.39;94227.94;4934329;29;20031;-71
2021/04/18 07:30:22;;;;;;;21.08;16.40;;;;;;;3.69;70.75;94234.75;4920682;28;20648;-71
2021/04/18 07:33:06;;;;;;;18.05;15.40;;;;;;;4.12;69.91;94227.72;4956805;28;20026;-71
2021/04/18 07:35:37;;;;;;;19.50;14.68;;;;;;;4.17;68.37;94224.75;4957004;28;20043;-72
2021/04/18 07:38:23;;;;;;;16.95;14.10;;;;;;;4.38;68.43;94225.50;4973477;28;20109;-71
2021/04/18 07:40:54;;;;;;;17.83;13.82;;;;;;;4.55;67.05;94226.63;4954921;28;20038;-71
2021/04/18 07:43:19;;;;;;;17.42;14.80;;;;;;;4.63;68.13;94222.56;4959819;28;20046;-71
2021/04/18 07:45:53;;;;;;;17.45;14.00;;;;;;;4.90;66.71;94230.50;4989222;28;20041;-71
2021/04/18 07:48:20;;;;;;;18.05;14.38;;;;;;;4.92;67.39;94226.97;4954316;28;20130;-71
2021/04/18 07:51:03;;;;;;;18.50;13.95;;;;;;;5.06;65.74;94223.97;4947215;28;20041;-71
2021/04/18 07:53:30;;;;;;;18.17;14.95;;;;;;;5.20;67.10;94226.13;4963478;28;20038;-71
2021/04/18 07:55:56;;;;;;;18.15;14.75;;;;;;;5.17;66.52;94226.41;4971916;28;20192;-72
2021/04/18 07:58:27;;;;;;;19.40;14.10;;;;;;;5.33;64.82;94225.88;4966932;28;20088;-71
2021/04/18 08:00:55;;;;;;;18.85;14.05;;;;;;;5.43;65.93;94225.84;5011445;28;20044;-71
2021/04/18 08:03:30;;;;;;;19.17;14.18;;;;;;;4.97;65.15;94224.78;5049026;28;20029;-71
2021/04/18 08:05:57;;;;;;;19.70;14.88;;;;;;;5.31;66.21;94224.38;5010703;28;20032;-71
2021/04/18 08:08:51;;;;;;;17.38;13.90;;;;;;;5.47;65.08;94227.22;5012956;28;20030;-72
2021/04/18 08:11:23;;;;;;;18.13;13.90;;;;;;;5.61;65.00;94225.97;5034359;28;20028;-72
2021/04/18 08:13:54;;;;;;;16.60;13.93;;;;;;;5.44;63.50;94229.25;5050468;28;20124;-72
2021/04/18 08:16:34;;;;;;;18.40;15.73;;;;;;;5.20;67.17;94231.31;5011508;28;20018;-71
2021/04/18 08:19:14;;;;;;;18.90;14.35;;;;;;;5.28;65.45;94235.03;5030030;28;20021;-72
2021/04/18 08:21:48;;;;;;;17.23;15.05;;;;;;;5.45;64.82;94236.09;5030646;28;20032;-72
2021/04/18 08:24:21;;;;;;;19.02;15.38;;;;;;;5.58;66.27;94237.44;5015936;28;20032;-71
2021/04/18 08:27:16;;;;;;;17.25;14.32;;;;;;;5.47;65.01;94237.59;5046578;28;20029;-71
2021/04/18 08:30:06;;;;;;;18.60;15.80;;;;;;;5.53;65.69;94238.81;5046450;28;20028;-71
2021/04/18 08:32:46;;;;;;;19.85;14.70;;;;;;;5.80;63.43;94240.69;5028737;28;20025;-72
2021/04/18 08:35:15;;;;;;;18.60;15.23;;;;;;;5.80;65.50;94238.09;5054002;28;20084;-71
2021/04/18 08:37:41;;;;;;;17.92;14.88;;;;;;;6.03;63.25;94235.19;5035339;28;20102;-72
2021/04/18 08:40:07;;;;;;;16.35;14.35;;;;;;;6.38;63.00;94233.69;5037807;28;20033;-72
2021/04/18 08:42:32;;;;;;;19.23;15.75;;;;;;;5.33;62.60;94241.44;5038513;28;20245;-71
2021/04/18 08:45:07;;;;;;;19.75;14.43;;;;;;;5.71;62.41;94238.91;5039224;28;20025;-71
2021/04/18 08:47:33;;;;;;;16.75;14.65;;;;;;;5.80;61.17;94242.47;5059790;28;20040;-71
2021/04/18 08:50:08;;;;;;;20.60;16.42;;;;;;;6.19;63.79;94238.00;5035371;28;20032;-72
2021/04/18 08:52:42;;;;;;;20.50;14.65;;;;;;;6.64;60.78;94238.22;5063941;28;20031;-72
2021/04/18 08:55:12;;;;;;;19.30;15.13;;;;;;;6.69;58.88;94230.78;5046964;28;20029;-72
2021/04/18 08:57:40;;;;;;;21.27;15.32;;;;;;;6.81;59.51;94237.41;5039259;28;20025;-73
2021/04/18 09:00:14;;;;;;;19.63;15.85;;;;;;;6.97;59.33;94234.16;5043811;28;20056;-71
2021/04/18 09:02:54;;;;;;;18.58;16.58;;;;;;;6.90;60.40;94240.94;5037679;28;20031;-71
2021/04/18 09:05:24;;;;;;;18.90;15.48;;;;;;;6.77;58.66;94243.88;5047205;28;20037;-72
2021/04/18 09:07:56;;;;;;;20.50;15.85;;;;;;;6.87;59.14;94243.84;5042522;28;20021;-71
2021/04/18 09:10:22;;;;;;;18.05;15.27;;;;;;;6.80;59.59;94245.38;5055057;28;20021;-72
2021/04/18 09:12:49;;;;;;;19.02;15.38;;;;;;;6.90;58.89;94233.13;5027856;28;20048;-72
2021/04/18 09:15:16;;;;;;;20.15;14.90;;;;;;;7.15;59.47;94243.75;5042498;28;20036;-72
2021/04/18 09:17:44;;;;;;;20.20;14.65;;;;;;;7.53;59.60;94241.81;5021169;28;20601;-72
2021/04/18 09:20:28;;;;;;;17.48;14.50;;;;;;;6.66;58.46;94241.47;5036672;28;20025;-72
2021/04/18 09:23:03;;;;;;;17.95;14.48;;;;;;;7.34;58.26;94237.59;5044466;28;20096;-71
2021/04/18 09:25:33;;;;;;;17.27;14.05;;;;;;;7.70;57.24;94243.56;5036435;28;20029;-72
2021/04/18 09:28:01;;;;;;;19.40;15.68;;;;;;;7.73;56.31;94242.47;5034797;28;20112;-71
2021/04/18 09:30:27;;;;;;;17.77;14.50;;;;;;;7.88;55.80;94243.53;5027767;28;20052;-72
2021/04/18 09:33:21;;;;;;;19.30;14.25;;;;;;;7.97;54.50;94243.59;5036963;28;20025;-72
2021/04/18 09:35:56;;;;;;;18.95;14.98;;;;;;;7.75;55.35;94243.94;5049853;28;20052;-71
2021/04/18 09:38:21;;;;;;;17.35;14.45;;;;;;;7.51;54.71;94246.38;5034007;28;20033;-71
2021/04/18 09:40:50;;;;;;;17.98;14.95;;;;;;;7.55;56.47;94245.91;5052127;28;20086;-72
2021/04/18 09:43:22;;;;;;;17.02;14.60;;;;;;;7.51;56.59;94251.56;5029163;28;20025;-71
2021/04/18 09:46:14;;;;;;;18.55;15.50;;;;;;;7.32;55.24;94255.16;5033654;28;20036;-71
2021/04/18 09:48:40;;;;;;;20.50;15.65;;;;;;;7.46;57.23;94256.41;5050778;28;20043;-71
2021/04/18 09:51:08;;;;;;;19.77;14.68;;;;;;;7.33;57.33;94248.97;5031003;28;20037;-71
2021/04/18 09:53:59;;;;;;;16.98;14.52;;;;;;;7.32;55.19;94255.97;5025843;28;20029;-71
2021/04/18 09:56:25;;;;;;;18.48;15.25;;;;;;;6.94;57.18;94252.69;5031871;28;20029;-71
2021/04/18 09:58:50;;;;;;;20.40;15.38;;;;;;;7.18;55.14;94251.28;5036227;28;20110;-71
2021/04/18 10:01:34;;;;;;;16.92;14.45;;;;;;;8.03;54.78;94249.00;5036356;28;20032;-71
2021/04/18 10:04:00;;;;;;;17.08;14.15;;;;;;;8.26;53.39;94253.69;5067455;28;20059;-71
2021/04/18 10:06:48;;;;;;;18.08;14.73;;;;;;;8.26;55.71;94251.91;5012041;28;20027;-72
2021/04/18 10:09:18;;;;;;;17.58;14.65;;;;;;;8.72;53.02;94243.00;5037025;28;20128;-73
2021/04/18 10:12:03;;;;;;;19.25;14.57;;;;;;;9.04;50.26;94249.28;5025422;28;20081;-72
2021/04/18 10:14:29;;;;;;;20.25;15.27;;;;;;;7.86;52.00;94249.88;5031488;28;20120;-71
2021/04/18 10:16:55;;;;;;;17.58;15.15;;;;;;;8.15;51.91;94246.97;5041182;28;20115;-72
2021/04/18 10:19:31;;;;;;;18.13;14.10;;;;;;;8.84;52.70;94244.34;5018564;28;20039;-72
2021/04/18 10:22:09;;;;;;;16.40;13.65;;;;;;;8.41;51.06;94244.31;5044534;28;20025;-72
2021/04/18 10:24:40;;;;;;;17.02;13.88;;;;;;;9.41;51.82;94243.66;5032718;28;20037;-72
2021/04/18 10:27:15;;;;;;;16.70;13.05;;;;;;;9.69;47.84;94238.09;5032825;28;20025;-71
2021/04/18 10:29:41;;;;;;;15.90;14.02;;;;;;;10.72;45.23;94230.53;5041890;28;20071;-71
2021/04/18 10:32:08;;;;;;;13.73;12.18;;;;;;;10.68;45.91;94234.47;5033843;28;20029;-71
2021/04/18 10:34:40;;;;;;;16.48;13.23;;;;;;;10.66;47.85;94225.97;5036505;28;20023;-72
2021/04/18 10:37:08;;;;;;;14.90;13.27;;;;;;;10.35;45.89;94229.34;5051932;28;20116;-71
2021/04/18 10:39:33;;;;;;;16.85;13.60;;;;;;;8.83;48.49;94229.66;5036527;28;20029;-71
2021/04/18 10:42:01;;;;;;;14.98;13.38;;;;;;;9.26;47.77;94233.03;5036623;28;20027;-71
2021/04/18 10:44:32;;;;;;;18.27;14.60;;;;;;;10.37;49.56;94235.22;5031229;28;20053;-71
2021/04/18 10:47:15;;;;;;;16.98;13.13;;;;;;;11.43;46.07;94230.44;5070237;28;20086;-72
2021/04/18 10:49:48;;;;;;;16.10;13.30;;;;;;;11.73;44.42;94228.72;5033421;28;20056;-71
2021/04/18 10:52:39;;;;;;;17.77;13.02;;;;;;;11.19;48.17;94226.19;5030921;28;20030;-72
2021/04/18 10:55:08;;;;;;;16.67;13.60;;;;;;;10.59;44.73;94220.59;4972690;28;20046;-71
2021/04/18 10:57:33;;;;;;;16.23;13.00;;;;;;;10.74;47.56;94224.16;4951952;28;20034;-71
2021/04/18 11:00:14;;;;;;;13.73;12.00;;;;;;;10.88;44.99;94227.00;4957337;28;20049;-71
2021/04/18 11:02:43;;;;;;;14.32;12.02;;;;;;;10.50;43.93;94221.59;4947663;28;20023;-71
2021/04/18 11:05:14;;;;;;;15.63;12.50;;;;;;;9.66;49.01;94212.28;4950142;28;20031;-71
2021/04/18 11:07:49;;;;;;;14.85;13.18;;;;;;;10.09;49.09;94218.13;4943560;28;20033;-72
2021/04/18 11:10:15;;;;;;;13.80;12.30;;;;;;;10.17;47.89;94219.88;4959025;28;20030;-71
2021/04/18 11:12:52;;;;;;;13.50;12.10;;;;;;;10.57;45.21;94214.72;4972999;28;20033;-71
2021/04/18 11:15:40;;;;;;;16.17;12.90;;;;;;;9.71;48.70;94222.25;4959563;28;20018;-71
2021/04/18 11:18:09;;;;;;;16.60;12.80;;;;;;;10.02;48.51;94222.34;4957391;28;20038;-72
2021/04/18 11:20:44;;;;;;;15.40;13.00;;;;;;;9.80;49.11;94222.09;4943745;28;20041;-71
2021/04/18 11:23:15;;;;;;;18.10;12.90;;;;;;;9.88;48.79;94223.06;4959536;28;20093;-71
2021/04/18 11:25:41;;;;;;;15.55;13.48;;;;;;;9.89;48.44;94224.69;4975619;28;20053;-74
2021/04/18 11:28:09;;;;;;;14.00;12.45;;;;;;;9.79;47.63;94220.44;4956073;28;20073;-72
2021/04/18 11:30:44;;;;;;;13.90;12.05;;;;;;;10.36;47.45;94218.72;4970188;28;20034;-74
2021/04/18 11:33:23;;;;;;;15.27;12.95;;;;;;;9.93;47.99;94220.75;5048204;28;20036;-72
2021/04/18 11:35:49;;;;;;;14.13;12.63;;;;;;;10.10;48.01;94219.75;5037707;28;20020;-71
2021/04/18 11:38:17;;;;;;;14.45;12.30;;;;;;;10.19;47.00;94223.16;5009831;28;20045;-71
2021/04/18 11:40:42;;;;;;;15.55;13.63;;;;;;;10.50;47.42;94225.06;5033416;28;20021;-71
2021/04/18 11:43:09;;;;;;;13.90;12.35;;;;;;;10.74;48.55;94221.53;5049633;28;20044;-72
2021/04/18 11:45:56;;;;;;;13.25;11.80;;;;;;;11.93;42.55;94217.75;5029807;28;20029;-72